sensor_id;sensor_type;location;lat;lon;timestamp;P1;durP1;ratioP1;P2;durP2;ratioP2
18473;SDS011;30265;52.408;13.500;2023-09-19T00:05:35;0.30;;;0.30;;
18473;SDS011;30265;52.408;13.500;2023-09-19T00:15:58;0.40;;;0.40;;
18473;SDS011;30265;52.408;13.500;2023-09-19T00:26:21;0.40;;;0.40;;
18473;SDS011;30265;52.408;13.500;2023-09-19T00:36:45;0.40;;;0.40;;
18473;SDS011;30265;52.408;13.500;2023-09-19T00:47:07;0.38;;;0.38;;
18473;SDS011;30265;52.408;13.500;2023-09-19T00:57:29;0.40;;;0.40;;
18473;SDS011;30265;52.408;13.500;2023-09-19T01:07:54;0.40;;;0.40;;
18473;SDS011;30265;52.408;13.500;2023-09-19T01:18:20;0.40;;;0.40;;
18473;SDS011;30265;52.408;13.500;2023-09-19T01:28:58;0.40;;;0.40;;
18473;SDS011;30265;52.408;13.500;2023-09-19T01:39:35;0.40;;;0.40;;
18473;SDS011;30265;52.408;13.500;2023-09-19T01:49:59;0.40;;;0.40;;
18473;SDS011;30265;52.408;13.500;2023-09-19T02:00:29;0.40;;;0.40;;
18473;SDS011;30265;52.408;13.500;2023-09-19T02:10:54;0.40;;;0.40;;
18473;SDS011;30265;52.408;13.500;2023-09-19T02:21:17;0.40;;;0.40;;
18473;SDS011;30265;52.408;13.500;2023-09-19T02:31:38;0.40;;;0.40;;
18473;SDS011;30265;52.408;13.500;2023-09-19T02:42:02;0.32;;;0.32;;
18473;SDS011;30265;52.408;13.500;2023-09-19T02:52:24;0.50;;;0.50;;
18473;SDS011;30265;52.408;13.500;2023-09-19T03:02:48;0.40;;;0.40;;
18473;SDS011;30265;52.408;13.500;2023-09-19T03:13:12;0.40;;;0.40;;
18473;SDS011;30265;52.408;13.500;2023-09-19T03:23:35;0.40;;;0.40;;
18473;SDS011;30265;52.408;13.500;2023-09-19T03:33:58;0.47;;;0.47;;
18473;SDS011;30265;52.408;13.500;2023-09-19T03:44:21;0.40;;;0.40;;
18473;SDS011;30265;52.408;13.500;2023-09-19T03:54:43;0.40;;;0.40;;
18473;SDS011;30265;52.408;13.500;2023-09-19T04:05:08;0.40;;;0.40;;
18473;SDS011;30265;52.408;13.500;2023-09-19T04:15:31;0.50;;;0.50;;
18473;SDS011;30265;52.408;13.500;2023-09-19T04:25:54;0.40;;;0.40;;
18473;SDS011;30265;52.408;13.500;2023-09-19T04:36:16;0.40;;;0.40;;
18473;SDS011;30265;52.408;13.500;2023-09-19T04:46:56;0.40;;;0.40;;
18473;SDS011;30265;52.408;13.500;2023-09-19T04:57:18;0.40;;;0.40;;
18473;SDS011;30265;52.408;13.500;2023-09-19T05:07:41;0.40;;;0.40;;
18473;SDS011;30265;52.408;13.500;2023-09-19T05:18:04;0.40;;;0.40;;
18473;SDS011;30265;52.408;13.500;2023-09-19T05:28:28;0.40;;;0.40;;
18473;SDS011;30265;52.408;13.500;2023-09-19T05:38:49;0.40;;;0.40;;
18473;SDS011;30265;52.408;13.500;2023-09-19T05:49:12;0.40;;;0.40;;
18473;SDS011;30265;52.408;13.500;2023-09-19T05:59:34;0.40;;;0.40;;
18473;SDS011;30265;52.408;13.500;2023-09-19T06:09:56;0.40;;;0.40;;
18473;SDS011;30265;52.408;13.500;2023-09-19T06:20:18;0.40;;;0.40;;
18473;SDS011;30265;52.408;13.500;2023-09-19T06:30:41;0.40;;;0.40;;
18473;SDS011;30265;52.408;13.500;2023-09-19T06:41:03;0.35;;;0.35;;
18473;SDS011;30265;52.408;13.500;2023-09-19T06:51:28;0.40;;;0.40;;
18473;SDS011;30265;52.408;13.500;2023-09-19T07:01:50;0.40;;;0.40;;
18473;SDS011;30265;52.408;13.500;2023-09-19T07:12:13;0.40;;;0.40;;
18473;SDS011;30265;52.408;13.500;2023-09-19T07:22:35;0.40;;;0.40;;
18473;SDS011;30265;52.408;13.500;2023-09-19T07:33:02;0.20;;;0.20;;
18473;SDS011;30265;52.408;13.500;2023-09-19T07:43:25;0.30;;;0.30;;
18473;SDS011;30265;52.408;13.500;2023-09-19T07:53:49;0.40;;;0.40;;
18473;SDS011;30265;52.408;13.500;2023-09-19T08:04:10;0.30;;;0.30;;
18473;SDS011;30265;52.408;13.500;2023-09-19T08:14:33;0.40;;;0.40;;
18473;SDS011;30265;52.408;13.500;2023-09-19T08:24:55;0.25;;;0.25;;
18473;SDS011;30265;52.408;13.500;2023-09-19T08:35:20;0.40;;;0.40;;
18473;SDS011;30265;52.408;13.500;2023-09-19T08:45:42;0.30;;;0.30;;
18473;SDS011;30265;52.408;13.500;2023-09-19T08:56:05;0.28;;;0.28;;
18473;SDS011;30265;52.408;13.500;2023-09-19T09:06:30;0.30;;;0.30;;
18473;SDS011;30265;52.408;13.500;2023-09-19T09:16:54;0.38;;;0.38;;
18473;SDS011;30265;52.408;13.500;2023-09-19T09:27:19;0.30;;;0.30;;
18473;SDS011;30265;52.408;13.500;2023-09-19T09:37:45;0.40;;;0.40;;
18473;SDS011;30265;52.408;13.500;2023-09-19T09:48:08;0.30;;;0.30;;
18473;SDS011;30265;52.408;13.500;2023-09-19T09:58:37;0.40;;;0.40;;
18473;SDS011;30265;52.408;13.500;2023-09-19T10:09:10;0.30;;;0.30;;
18473;SDS011;30265;52.408;13.500;2023-09-19T10:19:36;0.40;;;0.40;;
18473;SDS011;30265;52.408;13.500;2023-09-19T10:30:06;0.30;;;0.30;;
18473;SDS011;30265;52.408;13.500;2023-09-19T10:50:56;0.20;;;0.20;;
18473;SDS011;30265;52.408;13.500;2023-09-19T11:01:34;0.30;;;0.30;;
18473;SDS011;30265;52.408;13.500;2023-09-19T11:12:05;0.30;;;0.30;;
18473;SDS011;30265;52.408;13.500;2023-09-19T11:22:29;0.20;;;0.20;;
18473;SDS011;30265;52.408;13.500;2023-09-19T11:33:29;0.30;;;0.30;;
18473;SDS011;30265;52.408;13.500;2023-09-19T11:44:31;0.10;;;0.10;;
18473;SDS011;30265;52.408;13.500;2023-09-19T11:54:58;0.20;;;0.20;;
18473;SDS011;30265;52.408;13.500;2023-09-19T12:05:29;0.20;;;0.20;;
18473;SDS011;30265;52.408;13.500;2023-09-19T12:15:53;0.20;;;0.20;;
18473;SDS011;30265;52.408;13.500;2023-09-19T12:26:22;0.20;;;0.20;;
18473;SDS011;30265;52.408;13.500;2023-09-19T12:36:44;0.23;;;0.23;;
18473;SDS011;30265;52.408;13.500;2023-09-19T12:47:11;0.20;;;0.20;;
18473;SDS011;30265;52.408;13.500;2023-09-19T12:57:36;0.20;;;0.20;;
18473;SDS011;30265;52.408;13.500;2023-09-19T13:08:04;0.10;;;0.10;;
18473;SDS011;30265;52.408;13.500;2023-09-19T13:18:44;0.20;;;0.20;;
18473;SDS011;30265;52.408;13.500;2023-09-19T13:29:07;0.20;;;0.20;;
18473;SDS011;30265;52.408;13.500;2023-09-19T13:39:30;0.20;;;0.20;;
18473;SDS011;30265;52.408;13.500;2023-09-19T13:49:53;0.20;;;0.20;;
18473;SDS011;30265;52.408;13.500;2023-09-19T14:00:15;0.17;;;0.17;;
18473;SDS011;30265;52.408;13.500;2023-09-19T14:10:39;0.20;;;0.20;;
18473;SDS011;30265;52.408;13.500;2023-09-19T14:21:03;0.20;;;0.20;;
18473;SDS011;30265;52.408;13.500;2023-09-19T14:31:26;0.30;;;0.30;;
18473;SDS011;30265;52.408;13.500;2023-09-19T14:41:48;0.20;;;0.20;;
18473;SDS011;30265;52.408;13.500;2023-09-19T14:52:11;0.20;;;0.20;;
18473;SDS011;30265;52.408;13.500;2023-09-19T15:02:35;0.20;;;0.20;;
18473;SDS011;30265;52.408;13.500;2023-09-19T15:12:59;0.20;;;0.20;;
18473;SDS011;30265;52.408;13.500;2023-09-19T15:23:20;0.20;;;0.20;;
18473;SDS011;30265;52.408;13.500;2023-09-19T15:33:52;0.30;;;0.30;;
18473;SDS011;30265;52.408;13.500;2023-09-19T15:44:16;0.30;;;0.30;;
18473;SDS011;30265;52.408;13.500;2023-09-19T15:54:41;0.25;;;0.25;;
18473;SDS011;30265;52.408;13.500;2023-09-19T16:05:05;0.20;;;0.20;;
18473;SDS011;30265;52.408;13.500;2023-09-19T16:15:29;0.10;;;0.10;;
18473;SDS011;30265;52.408;13.500;2023-09-19T16:25:59;0.30;;;0.30;;
18473;SDS011;30265;52.408;13.500;2023-09-19T16:36:25;0.20;;;0.20;;
18473;SDS011;30265;52.408;13.500;2023-09-19T16:46:47;0.30;;;0.30;;
18473;SDS011;30265;52.408;13.500;2023-09-19T16:57:10;0.30;;;0.30;;
18473;SDS011;30265;52.408;13.500;2023-09-19T17:07:34;0.32;;;0.32;;
18473;SDS011;30265;52.408;13.500;2023-09-19T17:17:59;0.30;;;0.30;;
18473;SDS011;30265;52.408;13.500;2023-09-19T17:28:21;0.30;;;0.30;;
18473;SDS011;30265;52.408;13.500;2023-09-19T17:38:44;0.40;;;0.40;;
18473;SDS011;30265;52.408;13.500;2023-09-19T17:49:09;0.40;;;0.40;;
18473;SDS011;30265;52.408;13.500;2023-09-19T17:59:35;0.40;;;0.40;;
18473;SDS011;30265;52.408;13.500;2023-09-19T18:09:57;0.40;;;0.40;;
18473;SDS011;30265;52.408;13.500;2023-09-19T18:20:20;0.50;;;0.50;;
18473;SDS011;30265;52.408;13.500;2023-09-19T18:30:46;0.47;;;0.47;;
18473;SDS011;30265;52.408;13.500;2023-09-19T18:41:09;0.47;;;0.47;;
18473;SDS011;30265;52.408;13.500;2023-09-19T18:51:31;0.40;;;0.40;;
18473;SDS011;30265;52.408;13.500;2023-09-19T19:01:55;0.40;;;0.40;;
18473;SDS011;30265;52.408;13.500;2023-09-19T19:12:18;0.43;;;0.43;;
18473;SDS011;30265;52.408;13.500;2023-09-19T19:22:42;0.40;;;0.40;;
18473;SDS011;30265;52.408;13.500;2023-09-19T19:33:03;0.40;;;0.40;;
18473;SDS011;30265;52.408;13.500;2023-09-19T19:43:27;0.40;;;0.40;;
18473;SDS011;30265;52.408;13.500;2023-09-19T19:53:50;0.40;;;0.40;;
18473;SDS011;30265;52.408;13.500;2023-09-19T20:04:14;0.40;;;0.40;;
18473;SDS011;30265;52.408;13.500;2023-09-19T20:14:36;0.40;;;0.40;;
18473;SDS011;30265;52.408;13.500;2023-09-19T20:24:59;0.40;;;0.40;;
18473;SDS011;30265;52.408;13.500;2023-09-19T20:35:24;0.40;;;0.40;;
18473;SDS011;30265;52.408;13.500;2023-09-19T20:45:48;0.40;;;0.40;;
18473;SDS011;30265;52.408;13.500;2023-09-19T20:56:13;0.40;;;0.40;;
18473;SDS011;30265;52.408;13.500;2023-09-19T21:06:37;0.50;;;0.50;;
18473;SDS011;30265;52.408;13.500;2023-09-19T21:16:59;0.40;;;0.40;;
18473;SDS011;30265;52.408;13.500;2023-09-19T21:27:22;0.50;;;0.50;;
18473;SDS011;30265;52.408;13.500;2023-09-19T21:37:45;0.40;;;0.40;;
18473;SDS011;30265;52.408;13.500;2023-09-19T21:48:08;0.40;;;0.40;;
18473;SDS011;30265;52.408;13.500;2023-09-19T21:58:31;0.50;;;0.50;;
18473;SDS011;30265;52.408;13.500;2023-09-19T22:08:57;0.50;;;0.50;;
18473;SDS011;30265;52.408;13.500;2023-09-19T22:19:19;0.40;;;0.40;;
18473;SDS011;30265;52.408;13.500;2023-09-19T22:29:42;0.40;;;0.40;;
18473;SDS011;30265;52.408;13.500;2023-09-19T22:40:05;0.43;;;0.43;;
18473;SDS011;30265;52.408;13.500;2023-09-19T22:50:46;0.50;;;0.50;;
18473;SDS011;30265;52.408;13.500;2023-09-19T23:01:12;0.50;;;0.50;;
18473;SDS011;30265;52.408;13.500;2023-09-19T23:11:51;0.40;;;0.40;;
18473;SDS011;30265;52.408;13.500;2023-09-19T23:22:15;0.45;;;0.45;;
18473;SDS011;30265;52.408;13.500;2023-09-19T23:32:44;0.40;;;0.40;;
18473;SDS011;30265;52.408;13.500;2023-09-19T23:43:06;0.40;;;0.40;;
18473;SDS011;30265;52.408;13.500;2023-09-19T23:53:35;0.40;;;0.40;;
